createdAt,value
2019-05-20T00:01:35.347Z,30.00
2019-05-20T00:04:06.208Z,30.00
2019-05-20T00:06:37.005Z,30.00
2019-05-20T00:09:08.301Z,30.10
2019-05-20T00:11:39.246Z,30.10
2019-05-20T00:14:10.151Z,30.10
2019-05-20T00:16:41.151Z,30.20
2019-05-20T00:19:11.947Z,30.20
2019-05-20T00:21:42.642Z,30.30
2019-05-20T00:24:13.668Z,30.30
2019-05-20T00:26:44.538Z,30.30
2019-05-20T00:29:15.530Z,30.40
2019-05-20T00:31:46.428Z,30.40
2019-05-20T00:34:17.136Z,30.40
2019-05-20T00:36:47.781Z,30.50
2019-05-20T00:39:20.132Z,30.60
2019-05-20T00:41:50.821Z,30.60
2019-05-20T00:44:21.798Z,30.70
2019-05-20T00:46:52.775Z,30.70
2019-05-20T00:49:23.462Z,30.80
2019-05-20T00:51:54.230Z,30.90
2019-05-20T00:54:25.217Z,31.00
2019-05-20T00:56:55.837Z,31.00
2019-05-20T00:59:26.574Z,31.10
2019-05-20T01:01:57.532Z,31.20
2019-05-20T01:04:28.249Z,31.20
2019-05-20T01:06:58.939Z,31.30
2019-05-20T01:09:29.661Z,31.40
2019-05-20T01:12:00.343Z,31.50
2019-05-20T01:14:31.036Z,31.50
2019-05-20T01:17:02.061Z,31.60
2019-05-20T01:19:32.821Z,31.60
2019-05-20T01:22:03.504Z,31.70
2019-05-20T01:24:34.219Z,31.60
2019-05-20T01:27:04.952Z,31.70
2019-05-20T01:29:35.684Z,31.70
2019-05-20T01:32:06.376Z,31.70
2019-05-20T01:34:37.076Z,31.80
2019-05-20T01:37:07.844Z,31.90
2019-05-20T01:39:38.527Z,32.00
2019-05-20T01:42:09.406Z,32.00
2019-05-20T01:44:40.299Z,32.10
2019-05-20T01:47:11.275Z,32.20
2019-05-20T01:49:42.153Z,32.30
2019-05-20T01:52:12.848Z,32.40
2019-05-20T01:54:44.063Z,32.40
2019-05-20T01:57:14.738Z,32.50
2019-05-20T01:59:45.443Z,32.50
2019-05-20T02:02:16.136Z,32.60
2019-05-20T02:04:46.836Z,32.70
2019-05-20T02:07:18.266Z,32.80
2019-05-20T02:09:49.040Z,32.80
2019-05-20T02:12:19.746Z,32.90
2019-05-20T02:14:51.779Z,33.00
2019-05-20T02:17:22.453Z,33.10
2019-05-20T02:19:53.179Z,33.20
2019-05-20T02:22:23.929Z,33.30
2019-05-20T02:24:54.673Z,33.40
2019-05-20T02:27:25.629Z,33.40
2019-05-20T02:29:56.539Z,33.50
2019-05-20T02:32:27.202Z,33.50
2019-05-20T02:34:58.109Z,33.70
2019-05-20T02:37:28.807Z,33.70
2019-05-20T02:39:59.505Z,33.80
2019-05-20T02:42:30.200Z,33.90
2019-05-20T02:45:00.905Z,34.00
2019-05-20T02:47:31.652Z,34.00
2019-05-20T02:50:02.369Z,34.10
2019-05-20T02:52:33.011Z,34.20
2019-05-20T02:55:03.725Z,34.20
2019-05-20T02:57:34.394Z,34.30
2019-05-20T03:00:06.922Z,34.40
2019-05-20T03:02:37.593Z,34.50
2019-05-20T03:05:09.637Z,34.50
2019-05-20T03:07:40.361Z,34.60
2019-05-20T03:10:11.071Z,34.70
2019-05-20T03:12:41.745Z,34.70
2019-05-20T03:15:12.431Z,34.80
2019-05-20T03:17:43.056Z,34.90
2019-05-20T03:20:13.917Z,35.00
2019-05-20T03:22:47.076Z,35.00
2019-05-20T03:25:17.756Z,35.20
2019-05-20T03:27:48.542Z,35.10
2019-05-20T03:30:19.596Z,35.30
2019-05-20T03:32:50.338Z,35.40
2019-05-20T03:35:21.057Z,35.40
2019-05-20T03:37:52.340Z,35.50
2019-05-20T03:40:23.330Z,35.50
2019-05-20T03:42:54.319Z,35.60
2019-05-20T03:45:25.007Z,35.60
2019-05-20T03:47:55.700Z,35.70
2019-05-20T03:50:26.477Z,35.70
2019-05-20T03:52:57.272Z,35.90
2019-05-20T03:55:28.043Z,35.90
2019-05-20T03:57:58.776Z,36.00
2019-05-20T04:00:32.159Z,36.00
2019-05-20T04:03:02.898Z,36.10
2019-05-20T04:05:33.741Z,36.20
2019-05-20T04:08:04.641Z,36.30
2019-05-20T04:10:36.611Z,36.30
2019-05-20T04:13:07.404Z,36.40
2019-05-20T04:15:38.968Z,36.50
2019-05-20T04:18:10.234Z,36.50
2019-05-20T04:20:41.102Z,36.60
2019-05-20T04:23:12.095Z,36.60
2019-05-20T04:25:42.877Z,36.80
2019-05-20T04:28:13.896Z,36.70
2019-05-20T04:30:47.466Z,36.80
2019-05-20T04:33:24.413Z,36.90
2019-05-20T04:35:55.568Z,36.90
2019-05-20T04:38:26.413Z,36.90
2019-05-20T04:40:57.191Z,36.90
2019-05-20T04:43:28.017Z,37.00
2019-05-20T04:45:59.029Z,37.00
2019-05-20T04:48:29.876Z,37.00
2019-05-20T04:51:00.788Z,37.10
2019-05-20T04:53:32.906Z,37.20
2019-05-20T04:56:03.578Z,37.20
2019-05-20T04:58:34.773Z,37.30
2019-05-20T05:01:05.970Z,37.30
2019-05-20T05:03:36.951Z,37.40
2019-05-20T05:06:07.867Z,37.40
2019-05-20T05:08:38.535Z,37.60
2019-05-20T05:11:09.473Z,37.70
2019-05-20T05:13:40.474Z,37.70
2019-05-20T05:16:11.251Z,37.80
2019-05-20T05:18:41.944Z,37.90
2019-05-20T05:21:14.504Z,37.90
2019-05-20T05:23:58.340Z,38.00
2019-05-20T05:26:18.500Z,38.00
2019-05-20T05:28:50.456Z,38.00
2019-05-20T05:32:01.338Z,38.10
2019-05-20T05:34:34.610Z,38.20
2019-05-20T05:37:07.354Z,38.30
2019-05-20T05:39:45.096Z,38.40
2019-05-20T05:42:27.394Z,38.50
2019-05-20T05:44:58.165Z,38.60
2019-05-20T05:47:28.875Z,38.60
2019-05-20T05:49:59.557Z,38.70
2019-05-20T05:52:32.070Z,38.70
2019-05-20T05:55:04.970Z,38.60
2019-05-20T05:57:35.655Z,38.70
2019-05-20T06:00:08.008Z,38.70
2019-05-20T06:02:38.741Z,38.70
2019-05-20T06:05:09.565Z,38.70
2019-05-20T06:07:40.326Z,38.70
2019-05-20T06:10:11.121Z,38.70
2019-05-20T06:12:41.853Z,38.80
2019-05-20T06:15:12.644Z,38.80
2019-05-20T06:17:43.313Z,38.80
2019-05-20T06:20:14.181Z,38.80
2019-05-20T06:22:45.066Z,38.80
2019-05-20T06:25:16.015Z,38.90
2019-05-20T06:27:47.193Z,39.00
2019-05-20T06:30:19.208Z,39.00
2019-05-20T06:32:50.197Z,39.00
2019-05-20T06:35:20.890Z,39.10
2019-05-20T06:37:53.020Z,39.00
2019-05-20T06:40:23.973Z,39.10
2019-05-20T06:42:54.695Z,39.20
2019-05-20T06:45:25.364Z,39.10
2019-05-20T06:47:56.037Z,39.20
2019-05-20T06:50:29.590Z,39.20
2019-05-20T06:52:58.801Z,39.30
2019-05-20T06:55:29.480Z,39.40
2019-05-20T06:58:00.439Z,39.30
2019-05-20T07:00:33.739Z,39.30
2019-05-20T07:03:04.749Z,39.30
2019-05-20T07:05:35.719Z,39.20
2019-05-20T07:08:06.721Z,39.20
2019-05-20T07:10:37.925Z,39.10
2019-05-20T07:13:08.864Z,39.10
2019-05-20T07:15:39.935Z,39.20
2019-05-20T07:18:10.777Z,39.10
2019-05-20T07:20:41.761Z,39.10
2019-05-20T07:23:12.641Z,39.10
2019-05-20T07:25:43.500Z,39.00
2019-05-20T07:28:14.381Z,38.90
2019-05-20T07:30:45.175Z,38.80
2019-05-20T07:33:16.064Z,38.70
2019-05-20T07:35:47.243Z,38.70
2019-05-20T07:38:18.208Z,38.80
2019-05-20T07:40:49.084Z,38.80
2019-05-20T07:43:19.853Z,38.80
2019-05-20T07:45:50.735Z,38.80
2019-05-20T07:48:23.619Z,38.70
2019-05-20T07:50:54.209Z,38.70
2019-05-20T07:53:27.861Z,38.50
2019-05-20T07:56:01.296Z,38.50
2019-05-20T07:58:33.826Z,38.50
2019-05-20T08:01:04.572Z,38.40
2019-05-20T08:03:38.534Z,38.40
2019-05-20T08:06:07.794Z,38.40
2019-05-20T08:08:38.418Z,38.40
2019-05-20T08:11:09.346Z,38.40
2019-05-20T08:13:40.234Z,38.40
2019-05-20T08:16:10.902Z,38.40
2019-05-20T08:18:41.689Z,38.40
2019-05-20T08:21:13.179Z,38.40
2019-05-20T08:23:44.062Z,38.40
2019-05-20T08:26:15.051Z,38.40
2019-05-20T08:28:46.040Z,38.40
2019-05-20T08:31:17.061Z,38.50
2019-05-20T08:33:48.020Z,38.50
2019-05-20T08:36:18.917Z,38.50
2019-05-20T08:38:50.773Z,38.60
2019-05-20T08:41:21.531Z,38.60
2019-05-20T08:43:53.159Z,38.70
2019-05-20T08:46:23.949Z,38.70
2019-05-20T08:48:58.960Z,38.80
2019-05-20T08:51:29.843Z,38.80
2019-05-20T08:54:00.852Z,38.80
2019-05-20T08:56:31.749Z,38.80
2019-05-20T08:59:05.138Z,38.80
2019-05-20T09:01:36.189Z,38.90
2019-05-20T09:04:07.026Z,38.90
2019-05-20T09:06:37.867Z,38.90
2019-05-20T09:09:12.211Z,39.00
2019-05-20T09:11:41.340Z,38.90
2019-05-20T09:14:12.320Z,38.80
2019-05-20T09:16:43.262Z,38.70
2019-05-20T09:19:13.992Z,38.70
2019-05-20T09:21:44.888Z,38.60
2019-05-20T09:24:18.827Z,38.60
2019-05-20T09:26:48.003Z,38.60
2019-05-20T09:29:18.996Z,38.60
2019-05-20T09:31:49.665Z,38.70
2019-05-20T09:34:20.618Z,38.70
2019-05-20T09:36:51.478Z,38.70
2019-05-20T09:39:22.463Z,38.60
2019-05-20T09:41:53.271Z,38.60
2019-05-20T09:44:23.972Z,38.50
2019-05-20T09:46:55.380Z,38.40
2019-05-20T09:49:26.350Z,38.40
2019-05-20T09:51:58.295Z,38.40
2019-05-20T09:54:30.777Z,38.40
2019-05-20T09:57:01.748Z,38.40
2019-05-20T09:59:42.602Z,38.30
2019-05-20T10:02:05.030Z,38.20
2019-05-20T10:04:35.784Z,38.20
2019-05-20T10:07:06.772Z,38.20
2019-05-20T10:09:37.470Z,38.20
2019-05-20T10:12:09.345Z,38.10
2019-05-20T10:14:40.101Z,38.10
2019-05-20T10:17:10.820Z,38.10
2019-05-20T10:19:42.368Z,38.10
2019-05-20T10:22:13.379Z,38.00
2019-05-20T10:24:44.372Z,38.00
2019-05-20T10:27:15.221Z,38.00
2019-05-20T10:29:45.928Z,38.00
2019-05-20T10:32:16.780Z,38.00
2019-05-20T10:34:47.441Z,37.90
2019-05-20T10:37:18.322Z,37.90
2019-05-20T10:39:48.946Z,37.90
2019-05-20T10:42:19.857Z,37.80
2019-05-20T10:44:50.532Z,37.80
2019-05-20T10:47:21.611Z,37.70
2019-05-20T10:49:52.654Z,37.70
2019-05-20T10:52:23.571Z,37.70
2019-05-20T10:54:54.520Z,37.60
2019-05-20T10:57:25.289Z,37.50
2019-05-20T10:59:56.175Z,37.50
2019-05-20T11:02:30.996Z,37.50
2019-05-20T11:04:59.294Z,37.40
2019-05-20T11:07:30.164Z,37.40
2019-05-20T11:10:01.111Z,37.40
2019-05-20T11:12:31.999Z,37.30
2019-05-20T11:15:03.174Z,37.40
2019-05-20T11:17:34.171Z,37.30
2019-05-20T11:20:06.805Z,37.20
2019-05-20T11:22:37.581Z,37.20
2019-05-20T11:25:08.943Z,37.10
2019-05-20T11:27:39.821Z,37.00
2019-05-20T11:30:11.466Z,37.00
2019-05-20T11:32:42.394Z,36.90
2019-05-20T11:35:13.082Z,36.90
2019-05-20T11:37:44.094Z,36.90
2019-05-20T11:40:16.064Z,36.90
2019-05-20T11:42:46.991Z,36.80
2019-05-20T11:45:17.893Z,36.80
2019-05-20T11:47:48.827Z,36.70
2019-05-20T11:50:19.808Z,36.70
2019-05-20T11:52:50.816Z,36.60
2019-05-20T11:55:21.611Z,36.60
2019-05-20T11:57:52.521Z,36.60
2019-05-20T12:00:23.478Z,36.50
2019-05-20T12:02:54.400Z,36.40
2019-05-20T12:05:25.045Z,36.50
2019-05-20T12:07:56.209Z,36.40
2019-05-20T12:10:27.316Z,36.30
2019-05-20T12:12:58.211Z,36.30
2019-05-20T12:15:29.088Z,36.20
2019-05-20T12:17:59.876Z,36.20
2019-05-20T12:20:30.511Z,36.10
2019-05-20T12:23:01.176Z,36.10
2019-05-20T12:25:32.169Z,36.10
2019-05-20T12:28:02.938Z,36.00
2019-05-20T12:30:33.621Z,36.00
2019-05-20T12:33:17.835Z,35.90
2019-05-20T12:35:36.739Z,35.90
2019-05-20T12:38:07.544Z,35.80
2019-05-20T12:40:38.547Z,35.80
2019-05-20T12:43:09.507Z,35.70
2019-05-20T12:45:40.601Z,35.70
2019-05-20T12:48:11.406Z,35.70
2019-05-20T12:50:42.107Z,35.70
2019-05-20T12:53:12.971Z,35.70
2019-05-20T12:55:44.163Z,35.60
2019-05-20T12:58:15.017Z,35.60
2019-05-20T13:00:45.902Z,35.60
2019-05-20T13:03:16.859Z,35.60
2019-05-20T13:05:47.901Z,35.60
2019-05-20T13:08:18.679Z,35.60
2019-05-20T13:10:49.550Z,35.50
2019-05-20T13:13:20.308Z,35.50
2019-05-20T13:15:51.704Z,35.40
2019-05-20T13:18:23.349Z,35.40
2019-05-20T13:20:54.340Z,35.40
2019-05-20T13:23:25.325Z,35.40
2019-05-20T13:25:56.174Z,35.30
2019-05-20T13:28:26.946Z,35.20
2019-05-20T13:30:58.073Z,35.20
2019-05-20T13:33:29.149Z,35.20
2019-05-20T13:36:00.051Z,35.20
2019-05-20T13:38:31.198Z,35.20
2019-05-20T13:41:02.015Z,35.20
2019-05-20T13:43:32.781Z,35.20
2019-05-20T13:46:03.508Z,35.20
2019-05-20T13:48:34.431Z,35.10
2019-05-20T13:53:35.266Z,35.10
2019-05-20T13:56:06.046Z,35.00
2019-05-20T13:58:36.938Z,35.10
2019-05-20T14:03:37.920Z,34.90
2019-05-20T14:06:08.933Z,34.90
2019-05-20T14:08:39.815Z,34.90
2019-05-20T14:11:10.829Z,34.80
2019-05-20T14:13:41.576Z,34.80
2019-05-20T14:16:12.249Z,34.80
2019-05-20T14:18:42.952Z,34.70
2019-05-20T14:21:13.842Z,34.70
2019-05-20T14:23:44.721Z,34.70
2019-05-20T14:26:16.793Z,34.70
2019-05-20T14:28:47.785Z,34.60
2019-05-20T14:31:18.664Z,34.60
2019-05-20T14:33:49.668Z,34.60
2019-05-20T14:36:38.481Z,34.50
2019-05-20T14:38:53.029Z,34.50
2019-05-20T14:41:23.710Z,34.40
2019-05-20T14:43:54.593Z,34.40
2019-05-20T14:46:25.556Z,34.30
2019-05-20T14:48:56.442Z,34.30
2019-05-20T14:51:27.341Z,34.20
2019-05-20T14:53:58.382Z,34.10
2019-05-20T14:56:29.287Z,34.10
2019-05-20T14:59:00.251Z,34.10
2019-05-20T15:01:30.963Z,34.00
2019-05-20T15:04:01.976Z,33.90
2019-05-20T15:06:32.981Z,33.90
2019-05-20T15:09:03.945Z,33.90
2019-05-20T15:11:38.207Z,33.90
2019-05-20T15:14:07.706Z,33.90
2019-05-20T15:16:39.677Z,33.80
2019-05-20T15:19:10.745Z,33.90
2019-05-20T15:21:41.524Z,33.80
2019-05-20T15:24:12.198Z,33.80
2019-05-20T15:26:43.319Z,33.80
2019-05-20T15:29:27.648Z,33.80
2019-05-20T15:31:53.699Z,33.80
2019-05-20T15:34:29.067Z,33.70
2019-05-20T15:37:00.481Z,33.60
2019-05-20T15:39:31.569Z,33.60
2019-05-20T15:42:02.589Z,33.50
2019-05-20T15:44:34.936Z,33.50
2019-05-20T15:47:06.091Z,33.50
2019-05-20T15:49:37.082Z,33.50
2019-05-20T15:52:08.036Z,33.40
2019-05-20T15:54:38.990Z,33.50
2019-05-20T15:57:10.130Z,33.50
2019-05-20T15:59:46.099Z,33.50
2019-05-20T16:02:13.382Z,33.50
2019-05-20T16:04:44.059Z,33.50
2019-05-20T16:07:15.012Z,33.50
2019-05-20T16:09:45.685Z,33.40
2019-05-20T16:12:16.492Z,33.40
2019-05-20T16:14:47.168Z,33.40
2019-05-20T16:17:17.855Z,33.30
2019-05-20T16:19:48.787Z,33.40
2019-05-20T16:22:19.786Z,33.30
2019-05-20T16:24:50.831Z,33.30
2019-05-20T16:27:21.755Z,33.30
2019-05-20T16:30:05.553Z,33.30
2019-05-20T16:32:24.708Z,33.20
2019-05-20T16:34:55.634Z,33.20
2019-05-20T16:37:26.418Z,33.10
2019-05-20T16:39:57.319Z,33.10
2019-05-20T16:42:28.116Z,33.10
2019-05-20T16:44:58.838Z,33.10
2019-05-20T16:47:29.624Z,33.10
2019-05-20T16:50:00.599Z,33.00
2019-05-20T16:52:31.325Z,33.00
2019-05-20T16:55:02.295Z,32.90
2019-05-20T16:57:33.339Z,32.90
2019-05-20T17:00:07.813Z,32.80
2019-05-20T17:02:36.625Z,32.80
2019-05-20T17:05:08.388Z,32.80
2019-05-20T17:07:39.390Z,32.70
2019-05-20T17:10:10.249Z,32.70
2019-05-20T17:12:41.254Z,32.70
2019-05-20T17:15:13.427Z,32.60
2019-05-20T17:17:44.285Z,32.60
2019-05-20T17:20:15.262Z,32.50
2019-05-20T17:22:46.159Z,32.50
2019-05-20T17:25:17.712Z,32.50
2019-05-20T17:27:48.712Z,32.50
2019-05-20T17:30:19.898Z,32.50
2019-05-20T17:32:50.819Z,32.40
2019-05-20T17:35:21.768Z,32.40
2019-05-20T17:37:55.151Z,32.40
2019-05-20T17:40:25.175Z,32.40
2019-05-20T17:42:56.037Z,32.30
2019-05-20T17:45:26.796Z,32.30
2019-05-20T17:47:57.662Z,32.30
2019-05-20T17:50:28.481Z,32.30
2019-05-20T17:52:59.215Z,32.30
2019-05-20T17:55:30.459Z,32.30
2019-05-20T17:58:01.438Z,32.20
2019-05-20T18:00:32.305Z,32.20
2019-05-20T18:03:03.197Z,32.20
2019-05-20T18:05:34.067Z,32.20
2019-05-20T18:08:04.943Z,32.20
2019-05-20T18:10:35.709Z,32.20
2019-05-20T18:13:06.702Z,32.20
2019-05-20T18:15:37.585Z,32.20
2019-05-20T18:18:08.367Z,32.20
2019-05-20T18:20:39.227Z,32.10
2019-05-20T18:23:10.368Z,32.10
2019-05-20T18:25:41.030Z,32.10
2019-05-20T18:28:11.827Z,32.10
2019-05-20T18:30:42.771Z,32.10
2019-05-20T18:33:13.759Z,32.10
2019-05-20T18:35:44.421Z,32.00
2019-05-20T18:38:15.327Z,32.00
2019-05-20T18:40:46.065Z,32.00
2019-05-20T18:43:17.072Z,31.90
2019-05-20T18:45:47.947Z,31.90
2019-05-20T18:48:18.861Z,31.80
2019-05-20T18:50:49.633Z,31.80
2019-05-20T18:53:20.312Z,31.80
2019-05-20T18:55:51.173Z,31.70
2019-05-20T18:58:22.155Z,31.70
2019-05-20T19:00:53.028Z,31.60
2019-05-20T19:03:24.375Z,31.50
2019-05-20T19:05:55.729Z,31.50
2019-05-20T19:08:26.595Z,31.40
2019-05-20T19:10:57.563Z,31.30
2019-05-20T19:13:28.528Z,31.30
2019-05-20T19:15:59.496Z,31.20
2019-05-20T19:18:30.294Z,31.20
2019-05-20T19:21:01.158Z,31.10
2019-05-20T19:23:31.966Z,31.10
2019-05-20T19:26:02.825Z,31.10
2019-05-20T19:28:33.522Z,31.10
2019-05-20T19:31:07.732Z,31.10
2019-05-20T19:33:36.489Z,31.10
2019-05-20T19:36:07.291Z,31.10
2019-05-20T19:38:38.332Z,31.10
2019-05-20T19:41:09.385Z,31.10
2019-05-20T19:43:40.097Z,31.00
2019-05-20T19:46:10.998Z,31.00
2019-05-20T19:48:42.077Z,31.00
2019-05-20T19:51:12.860Z,30.90
2019-05-20T19:53:43.674Z,30.90
2019-05-20T19:56:14.324Z,30.80
2019-05-20T19:58:45.102Z,30.80
2019-05-20T20:01:15.960Z,30.80
2019-05-20T20:03:46.891Z,30.80
2019-05-20T20:06:17.899Z,30.80
2019-05-20T20:08:48.816Z,30.80
2019-05-20T20:11:19.796Z,30.70
2019-05-20T20:13:50.693Z,30.70
2019-05-20T20:16:59.024Z,30.70
2019-05-20T20:19:30.409Z,30.60
2019-05-20T20:22:01.289Z,30.60
2019-05-20T20:24:32.165Z,30.60
2019-05-20T20:27:03.067Z,30.70
2019-05-20T20:29:33.946Z,30.60
2019-05-20T20:32:04.746Z,30.60
2019-05-20T20:34:35.585Z,30.60
2019-05-20T20:37:06.603Z,30.50
2019-05-20T20:39:37.460Z,30.50
2019-05-20T20:42:08.472Z,30.50
2019-05-20T20:44:39.435Z,30.50
2019-05-20T20:47:10.182Z,30.50
2019-05-20T20:49:41.164Z,30.50
2019-05-20T20:52:12.025Z,30.40
2019-05-20T20:54:42.799Z,30.40
2019-05-20T20:57:13.804Z,30.50
2019-05-20T20:59:44.486Z,30.40
2019-05-20T21:02:15.266Z,30.40
2019-05-20T21:04:46.045Z,30.40
2019-05-20T21:07:17.050Z,30.40
2019-05-20T21:09:47.816Z,30.40
2019-05-20T21:12:18.812Z,30.40
2019-05-20T21:14:49.590Z,30.40
2019-05-20T21:17:20.477Z,30.50
2019-05-20T21:19:51.252Z,30.50
2019-05-20T21:22:22.240Z,30.50
2019-05-20T21:24:53.005Z,30.50
2019-05-20T21:27:23.783Z,30.50
2019-05-20T21:29:54.549Z,30.50
2019-05-20T21:32:26.306Z,30.50
2019-05-20T21:34:57.312Z,30.50
2019-05-20T21:37:28.212Z,30.50
2019-05-20T21:39:58.897Z,30.50
2019-05-20T21:42:29.801Z,30.50
2019-05-20T21:45:00.679Z,30.50
2019-05-20T21:47:31.491Z,30.50
2019-05-20T21:50:02.176Z,30.50
2019-05-20T21:52:33.047Z,30.40
2019-05-20T21:55:03.738Z,30.40
2019-05-20T21:57:34.431Z,30.40
2019-05-20T22:00:06.718Z,30.40
2019-05-20T22:02:37.464Z,30.40
2019-05-20T22:05:08.597Z,30.40
2019-05-20T22:07:39.500Z,30.40
2019-05-20T22:10:10.405Z,30.30
2019-05-20T22:12:41.310Z,30.30
2019-05-20T22:15:12.354Z,30.30
2019-05-20T22:17:43.243Z,30.30
2019-05-20T22:20:14.200Z,30.30
2019-05-20T22:22:46.370Z,30.20
2019-05-20T22:25:17.247Z,30.20
2019-05-20T22:27:48.212Z,30.20
2019-05-20T22:30:18.995Z,30.20
2019-05-20T22:32:49.768Z,30.20
2019-05-20T22:35:20.621Z,30.30
2019-05-20T22:37:51.458Z,30.20
2019-05-20T22:40:22.112Z,30.20
2019-05-20T22:42:52.774Z,30.20
2019-05-20T22:45:23.474Z,30.20
2019-05-20T22:47:54.141Z,30.20
2019-05-20T22:50:25.030Z,30.20
2019-05-20T22:52:55.893Z,30.10
2019-05-20T22:55:26.858Z,30.10
2019-05-20T22:57:57.766Z,30.20
2019-05-20T23:00:28.733Z,30.20
2019-05-20T23:02:59.648Z,30.20
2019-05-20T23:05:30.619Z,30.20
2019-05-20T23:08:01.500Z,30.20
2019-05-20T23:10:32.593Z,30.20
2019-05-20T23:13:03.502Z,30.20
2019-05-20T23:15:34.618Z,30.20
2019-05-20T23:18:05.433Z,30.20
2019-05-20T23:20:36.211Z,30.20
2019-05-20T23:23:06.975Z,30.20
2019-05-20T23:25:37.819Z,30.20
2019-05-20T23:28:08.533Z,30.20
2019-05-20T23:30:39.414Z,30.20
2019-05-20T23:33:10.219Z,30.20
2019-05-20T23:35:41.035Z,30.20
2019-05-20T23:38:11.990Z,30.20
2019-05-20T23:40:42.867Z,30.20
2019-05-20T23:43:13.673Z,30.20
2019-05-20T23:45:45.033Z,30.20
2019-05-20T23:48:16.064Z,30.20
2019-05-20T23:50:46.760Z,30.30
2019-05-20T23:53:17.543Z,30.30
2019-05-20T23:55:48.401Z,30.30
2019-05-20T23:58:19.213Z,30.30
